createdAt,value
2022-12-14T00:01:33.476Z,10.75
2022-12-14T00:03:35.617Z,9.40
2022-12-14T00:05:40.209Z,8.73
2022-12-14T00:07:41.687Z,8.32
2022-12-14T00:09:43.212Z,8.38
2022-12-14T00:11:44.898Z,8.20
2022-12-14T00:13:59.936Z,7.50
2022-12-14T00:16:10.005Z,9.30
2022-12-14T00:18:18.061Z,9.60
2022-12-14T00:20:34.524Z,9.52
2022-12-14T00:22:48.488Z,8.30
2022-12-14T00:25:01.928Z,7.75
2022-12-14T00:27:16.831Z,7.93
2022-12-14T00:29:29.380Z,8.32
2022-12-14T00:31:48.954Z,8.48
2022-12-14T00:33:59.635Z,8.02
2022-12-14T00:36:12.185Z,11.00
2022-12-14T00:38:26.597Z,13.07
2022-12-14T00:40:40.575Z,10.85
2022-12-14T00:42:56.147Z,10.20
2022-12-14T00:45:12.609Z,9.63
2022-12-14T00:49:33.419Z,9.07
2022-12-14T00:51:45.852Z,9.98
2022-12-14T00:53:52.432Z,9.25
2022-12-14T00:55:56.591Z,10.55
2022-12-14T00:57:58.089Z,9.85
2022-12-14T01:00:02.216Z,9.50
2022-12-14T01:02:06.792Z,10.40
2022-12-14T01:04:17.428Z,8.90
2022-12-14T01:06:22.892Z,8.65
2022-12-14T01:08:24.441Z,9.60
2022-12-14T01:10:26.190Z,9.38
2022-12-14T01:12:27.705Z,9.77
2022-12-14T01:14:33.465Z,8.50
2022-12-14T01:17:03.268Z,8.07
2022-12-14T01:19:30.631Z,8.52
2022-12-14T01:21:57.272Z,7.70
2022-12-14T01:24:00.257Z,8.85
2022-12-14T01:26:01.785Z,7.75
2022-12-14T01:28:03.394Z,6.88
2022-12-14T01:30:07.934Z,9.52
2022-12-14T01:32:12.043Z,7.95
2022-12-14T01:34:13.532Z,9.15
2022-12-14T01:38:19.246Z,8.35
2022-12-14T01:40:23.306Z,8.25
2022-12-14T01:42:24.780Z,8.88
2022-12-14T01:44:26.194Z,8.50
2022-12-14T01:46:30.457Z,9.68
2022-12-14T01:50:39.392Z,10.83
2022-12-14T01:52:47.914Z,8.40
2022-12-14T01:54:51.914Z,8.77
2022-12-14T01:56:55.369Z,10.10
2022-12-14T01:58:59.209Z,9.45
2022-12-14T02:01:01.805Z,7.80
2022-12-14T02:03:12.934Z,9.05
2022-12-14T02:05:14.784Z,8.93
2022-12-14T02:07:17.310Z,10.05
2022-12-14T02:09:20.963Z,9.32
2022-12-14T02:11:28.269Z,11.15
2022-12-14T02:13:33.300Z,11.35
2022-12-14T02:15:34.942Z,9.07
2022-12-14T02:17:36.410Z,10.45
2022-12-14T02:19:41.854Z,11.05
2022-12-14T02:22:06.482Z,11.20
2022-12-14T02:24:13.792Z,10.00
2022-12-14T02:26:20.885Z,9.65
2022-12-14T02:28:37.385Z,11.00
2022-12-14T02:30:40.545Z,10.52
2022-12-14T02:32:50.047Z,8.77
2022-12-14T02:34:58.213Z,9.55
2022-12-14T02:37:25.010Z,8.43
2022-12-14T02:39:48.265Z,10.77
2022-12-14T02:41:55.392Z,8.55
2022-12-14T02:44:14.354Z,8.10
2022-12-14T02:46:21.065Z,8.30
2022-12-14T02:48:26.698Z,8.50
2022-12-14T02:50:28.381Z,8.85
2022-12-14T02:54:36.713Z,7.70
2022-12-14T02:56:44.065Z,8.02
2022-12-14T03:04:08.829Z,5.45
2022-12-14T03:06:43.020Z,5.45
2022-12-14T03:08:47.356Z,5.60
2022-12-14T03:12:58.010Z,4.27
2022-12-14T03:14:59.613Z,5.78
2022-12-14T03:17:07.194Z,4.28
2022-12-14T03:19:15.698Z,4.95
2022-12-14T03:21:19.279Z,5.15
2022-12-14T03:23:25.630Z,4.95
2022-12-14T03:25:36.021Z,3.50
2022-12-14T03:27:48.444Z,3.30
2022-12-14T03:29:57.473Z,3.97
2022-12-14T03:32:06.134Z,2.83
2022-12-14T03:34:13.283Z,3.78
2022-12-14T03:36:20.228Z,3.85
2022-12-14T03:38:33.902Z,5.38
2022-12-14T03:40:47.902Z,5.35
2022-12-14T03:42:54.576Z,4.00
2022-12-14T03:45:04.886Z,3.53
2022-12-14T03:47:33.570Z,4.13
2022-12-14T03:49:49.862Z,5.03
2022-12-14T03:52:16.572Z,4.28
2022-12-14T03:54:31.742Z,3.78
2022-12-14T03:56:52.777Z,3.40
2022-12-14T03:59:30.554Z,6.00
2022-12-14T04:01:39.581Z,5.22
2022-12-14T04:03:46.979Z,5.05
2022-12-14T04:06:03.754Z,6.95
2022-12-14T04:08:11.451Z,4.85
2022-12-14T04:10:36.748Z,7.05
2022-12-14T04:12:58.700Z,8.00
2022-12-14T04:15:27.467Z,6.50
2022-12-14T04:17:51.744Z,6.32
2022-12-14T04:20:08.697Z,5.63
2022-12-14T04:22:15.569Z,5.25
2022-12-14T04:24:44.920Z,5.65
2022-12-14T04:26:53.158Z,7.88
2022-12-14T04:29:16.167Z,5.75
2022-12-14T04:31:25.452Z,6.93
2022-12-14T04:33:49.029Z,5.97
2022-12-14T04:35:51.444Z,5.93
2022-12-14T04:38:02.422Z,6.28
2022-12-14T04:40:10.140Z,7.45
2022-12-14T04:42:13.493Z,5.95
2022-12-14T04:44:35.600Z,8.75
2022-12-14T04:46:41.102Z,6.05
2022-12-14T04:48:48.424Z,6.47
2022-12-14T04:50:53.837Z,7.40
2022-12-14T04:53:01.392Z,7.38
2022-12-14T04:55:09.272Z,8.32
2022-12-14T04:57:18.914Z,6.55
2022-12-14T04:59:20.883Z,5.78
2022-12-14T05:01:31.407Z,6.55
2022-12-14T05:03:38.732Z,5.88
2022-12-14T05:07:53.839Z,10.38
2022-12-14T05:09:58.068Z,7.22
2022-12-14T05:12:16.297Z,6.68
2022-12-14T05:14:21.108Z,6.63
2022-12-14T05:16:25.819Z,6.75
2022-12-14T05:18:29.947Z,6.80
2022-12-14T05:20:31.437Z,6.43
2022-12-14T05:22:38.856Z,6.65
2022-12-14T05:24:40.268Z,5.95
2022-12-14T05:26:41.891Z,6.20
2022-12-14T05:28:48.799Z,6.80
2022-12-14T05:30:54.778Z,6.70
2022-12-14T05:32:56.741Z,5.75
2022-12-14T05:34:58.227Z,9.20
2022-12-14T05:36:59.717Z,6.80
2022-12-14T05:39:01.233Z,6.85
2022-12-14T05:41:05.446Z,9.07
2022-12-14T05:43:10.997Z,6.60
2022-12-14T05:45:13.010Z,7.00
2022-12-14T05:47:17.193Z,6.75
2022-12-14T05:51:28.602Z,6.28
2022-12-14T05:55:46.408Z,8.60
2022-12-14T05:57:53.419Z,6.22
2022-12-14T05:59:54.857Z,5.60
2022-12-14T06:01:56.332Z,5.82
2022-12-14T06:03:57.850Z,7.40
2022-12-14T06:06:06.349Z,5.57
2022-12-14T06:08:08.116Z,6.00
2022-12-14T06:10:12.357Z,4.95
2022-12-14T06:14:18.253Z,4.68
2022-12-14T06:16:24.392Z,4.45
2022-12-14T06:18:28.912Z,4.88
2022-12-14T06:20:30.466Z,6.00
2022-12-14T06:24:38.536Z,5.82
2022-12-14T06:26:43.184Z,6.55
2022-12-14T06:28:44.793Z,6.60
2022-12-14T06:30:51.468Z,5.68
2022-12-14T06:33:05.472Z,5.20
2022-12-14T06:35:19.238Z,6.00
2022-12-14T06:37:33.047Z,6.93
2022-12-14T06:39:53.974Z,5.30
2022-12-14T06:42:04.156Z,6.97
2022-12-14T06:44:18.412Z,5.65
2022-12-14T06:46:29.971Z,8.45
2022-12-14T06:48:41.504Z,6.47
2022-12-14T06:50:55.684Z,5.80
2022-12-14T06:53:06.906Z,7.53
2022-12-14T06:55:20.889Z,7.80
2022-12-14T06:57:31.846Z,5.57
2022-12-14T06:59:44.577Z,5.05
2022-12-14T07:01:55.326Z,7.05
2022-12-14T07:03:59.185Z,7.90
2022-12-14T07:06:03.953Z,7.68
2022-12-14T07:08:08.313Z,7.45
2022-12-14T07:10:10.192Z,8.07
2022-12-14T07:12:11.975Z,6.72
2022-12-14T07:14:16.815Z,8.93
2022-12-14T07:16:20.051Z,8.70
2022-12-14T07:18:21.972Z,8.53
2022-12-14T07:20:23.502Z,9.13
2022-12-14T07:22:27.675Z,12.38
2022-12-14T07:24:32.506Z,11.57
2022-12-14T07:26:37.868Z,9.93
2022-12-14T07:28:42.658Z,9.13
2022-12-14T07:30:44.281Z,11.50
2022-12-14T07:32:47.075Z,8.77
2022-12-14T07:34:51.391Z,9.35
2022-12-14T07:36:54.375Z,9.13
2022-12-14T07:38:56.474Z,8.27
2022-12-14T07:41:05.089Z,11.50
2022-12-14T07:43:06.554Z,7.65
2022-12-14T07:45:08.152Z,8.32
2022-12-14T07:47:16.391Z,8.45
2022-12-14T07:49:18.423Z,10.05
2022-12-14T07:51:21.656Z,9.95
2022-12-14T07:53:26.203Z,11.90
2022-12-14T07:55:30.022Z,13.00
2022-12-14T07:57:34.517Z,12.23
2022-12-14T07:59:39.327Z,12.98
2022-12-14T08:01:43.954Z,12.95
2022-12-14T08:03:46.881Z,11.27
2022-12-14T08:05:50.974Z,12.48
2022-12-14T08:07:52.422Z,13.35
2022-12-14T08:09:54.018Z,11.90
2022-12-14T08:11:55.634Z,13.35
2022-12-14T08:13:57.991Z,14.82
2022-12-14T08:16:06.643Z,11.32
2022-12-14T08:18:08.279Z,13.48
2022-12-14T08:20:12.939Z,14.43
2022-12-14T08:22:20.380Z,13.23
2022-12-14T08:24:21.951Z,15.45
2022-12-14T08:26:24.909Z,12.52
2022-12-14T08:28:32.706Z,12.45
2022-12-14T08:30:40.746Z,13.15
2022-12-14T08:32:42.445Z,15.90
2022-12-14T08:34:50.474Z,16.67
2022-12-14T08:36:55.006Z,15.38
2022-12-14T08:39:06.427Z,13.27
2022-12-14T08:41:09.294Z,12.63
2022-12-14T08:43:13.582Z,15.00
2022-12-14T08:45:15.436Z,12.85
2022-12-14T08:47:19.599Z,15.27
2022-12-14T08:49:32.114Z,15.52
2022-12-14T08:51:37.178Z,13.82
2022-12-14T08:53:39.371Z,13.82
2022-12-14T08:55:44.444Z,14.10
2022-12-14T08:57:46.125Z,16.27
2022-12-14T09:00:03.481Z,16.08
2022-12-14T09:02:09.433Z,13.15
2022-12-14T09:04:14.061Z,13.13
2022-12-14T09:06:16.941Z,14.95
2022-12-14T09:08:18.662Z,16.33
2022-12-14T09:10:23.278Z,14.02
2022-12-14T09:12:25.092Z,14.52
2022-12-14T09:14:26.774Z,13.45
2022-12-14T09:16:28.617Z,12.55
2022-12-14T09:18:31.102Z,11.65
2022-12-14T09:20:36.245Z,11.65
2022-12-14T09:22:40.254Z,14.00
2022-12-14T09:24:42.776Z,14.10
2022-12-14T09:26:44.641Z,12.07
2022-12-14T09:28:53.001Z,13.15
2022-12-14T09:30:56.239Z,12.35
2022-12-14T09:32:57.697Z,11.82
2022-12-14T09:34:59.604Z,12.05
2022-12-14T09:37:09.740Z,10.77
2022-12-14T09:39:28.374Z,9.75
2022-12-14T09:41:54.094Z,9.55
2022-12-14T09:44:19.210Z,9.88
2022-12-14T09:46:33.940Z,12.32
2022-12-14T09:48:57.113Z,12.55
2022-12-14T09:51:19.119Z,11.00
2022-12-14T09:53:38.837Z,11.10
2022-12-14T09:55:55.670Z,12.15
2022-12-14T09:58:21.762Z,11.38
2022-12-14T10:00:39.115Z,10.70
2022-12-14T10:03:11.657Z,10.52
2022-12-14T10:05:38.448Z,11.20
2022-12-14T10:07:52.409Z,11.40
2022-12-14T10:10:09.372Z,9.95
2022-12-14T10:12:32.493Z,11.35
2022-12-14T10:14:50.460Z,12.23
2022-12-14T10:16:54.788Z,11.63
2022-12-14T10:19:09.136Z,12.27
2022-12-14T10:21:23.106Z,11.88
2022-12-14T10:23:25.594Z,10.73
2022-12-14T10:25:35.374Z,10.15
2022-12-14T10:28:09.406Z,11.10
2022-12-14T10:30:05.793Z,9.35
2022-12-14T10:32:16.182Z,10.52
2022-12-14T10:34:22.757Z,10.40
2022-12-14T10:36:34.903Z,9.85
2022-12-14T10:38:55.278Z,8.65
2022-12-14T10:41:03.157Z,8.85
2022-12-14T10:43:16.144Z,9.23
2022-12-14T10:45:40.695Z,10.10
2022-12-14T10:47:48.305Z,8.85
2022-12-14T10:49:55.849Z,8.52
2022-12-14T10:59:23.606Z,9.88
2022-12-14T11:01:27.330Z,10.30
2022-12-14T11:03:32.170Z,9.70
2022-12-14T11:05:43.222Z,8.65
2022-12-14T11:07:45.927Z,8.80
2022-12-14T11:09:47.483Z,7.97
2022-12-14T11:11:57.691Z,8.60
2022-12-14T11:14:09.407Z,8.13
2022-12-14T11:16:31.903Z,8.35
2022-12-14T11:18:37.101Z,10.43
2022-12-14T11:20:52.498Z,9.43
2022-12-14T11:22:56.023Z,11.13
2022-12-14T11:25:00.368Z,9.23
2022-12-14T11:27:03.951Z,9.35
2022-12-14T11:29:07.113Z,10.48
2022-12-14T11:31:10.873Z,10.52
2022-12-14T11:33:17.144Z,9.75
2022-12-14T11:35:20.205Z,11.57
2022-12-14T11:37:21.861Z,10.18
2022-12-14T11:39:26.381Z,9.85
2022-12-14T11:41:42.390Z,9.68
2022-12-14T11:43:43.842Z,8.73
2022-12-14T11:45:55.141Z,9.65
2022-12-14T11:48:14.905Z,10.60
2022-12-14T11:50:25.404Z,8.45
2022-12-14T11:52:40.420Z,8.57
2022-12-14T11:56:59.760Z,9.40
2022-12-14T11:59:01.393Z,8.75
2022-12-14T12:03:24.344Z,9.00
2022-12-14T12:05:26.497Z,9.35
2022-12-14T12:07:32.828Z,9.15
2022-12-14T12:09:37.197Z,9.18
2022-12-14T12:11:44.583Z,9.23
2022-12-14T12:13:52.660Z,11.23
2022-12-14T12:15:57.159Z,10.38
2022-12-14T12:18:06.333Z,9.25
2022-12-14T12:20:28.569Z,10.38
2022-12-14T12:22:31.540Z,9.50
2022-12-14T12:27:29.659Z,10.52
2022-12-14T12:29:34.257Z,8.77
2022-12-14T12:31:41.127Z,10.57
2022-12-14T12:34:09.979Z,10.38
2022-12-14T12:36:12.191Z,10.07
2022-12-14T12:38:16.584Z,9.48
2022-12-14T12:40:31.363Z,8.80
2022-12-14T12:42:58.655Z,9.75
2022-12-14T12:45:33.325Z,8.98
2022-12-14T12:47:59.026Z,10.00
2022-12-14T12:50:18.595Z,8.90
2022-12-14T12:52:50.618Z,8.43
2022-12-14T12:55:15.113Z,8.60
2022-12-14T12:57:42.216Z,8.90
2022-12-14T13:00:02.736Z,7.45
2022-12-14T13:04:53.797Z,9.20
2022-12-14T13:07:24.674Z,9.65
2022-12-14T13:09:53.617Z,8.93
2022-12-14T13:12:01.955Z,9.85
2022-12-14T13:14:35.527Z,8.27
2022-12-14T13:16:51.050Z,7.78
2022-12-14T13:19:32.119Z,8.15
2022-12-14T13:21:33.093Z,7.55
2022-12-14T13:23:44.726Z,7.30
2022-12-14T13:25:58.715Z,5.47
2022-12-14T13:28:12.790Z,8.38
2022-12-14T13:30:29.081Z,6.78
2022-12-14T13:32:46.155Z,6.50
2022-12-14T13:34:50.885Z,6.72
2022-12-14T13:36:55.513Z,7.53
2022-12-14T13:39:03.694Z,7.35
2022-12-14T13:41:06.043Z,6.80
2022-12-14T13:43:27.894Z,7.57
2022-12-14T13:45:32.240Z,7.40
2022-12-14T13:47:37.372Z,7.78
2022-12-14T13:50:11.359Z,8.60
2022-12-14T13:52:24.589Z,6.15
2022-12-14T13:54:28.450Z,7.80
2022-12-14T13:56:33.471Z,8.00
2022-12-14T13:58:40.810Z,7.50
2022-12-14T14:00:50.197Z,8.00
2022-12-14T14:02:53.790Z,8.33
2022-12-14T14:05:14.097Z,8.32
2022-12-14T14:07:22.505Z,6.95
2022-12-14T14:09:28.409Z,7.57
2022-12-14T14:11:37.348Z,6.88
2022-12-14T14:13:39.435Z,6.25
2022-12-14T14:16:26.288Z,6.10
2022-12-14T14:18:24.164Z,5.40
2022-12-14T14:20:32.096Z,7.50
2022-12-14T14:22:37.257Z,6.88
2022-12-14T14:24:52.627Z,5.90
2022-12-14T14:27:06.149Z,5.85
2022-12-14T14:29:23.228Z,4.20
2022-12-14T14:31:43.251Z,4.75
2022-12-14T14:33:49.295Z,4.72
2022-12-14T14:35:51.029Z,7.20
2022-12-14T14:37:58.283Z,6.13
2022-12-14T14:40:18.368Z,7.38
2022-12-14T14:42:30.469Z,7.13
2022-12-14T14:44:35.883Z,7.40
2022-12-14T14:46:46.120Z,6.97
2022-12-14T14:48:53.197Z,7.53
2022-12-14T14:51:14.825Z,5.80
2022-12-14T14:53:19.198Z,5.70
2022-12-14T14:55:51.905Z,6.07
2022-12-14T14:57:59.308Z,7.50
2022-12-14T15:00:02.465Z,6.60
2022-12-14T15:02:23.605Z,5.25
2022-12-14T15:04:37.141Z,4.88
2022-12-14T15:06:43.198Z,5.50
2022-12-14T15:08:55.959Z,6.53
2022-12-14T15:11:05.384Z,7.97
2022-12-14T15:13:09.452Z,7.45
2022-12-14T15:17:18.478Z,7.82
2022-12-14T15:19:33.908Z,9.68
2022-12-14T15:21:38.424Z,8.52
2022-12-14T15:23:53.616Z,7.15
2022-12-14T15:26:01.760Z,8.43
2022-12-14T15:28:08.217Z,7.10
2022-12-14T15:30:13.037Z,7.25
2022-12-14T15:32:16.390Z,7.50
2022-12-14T15:34:20.586Z,6.70
2022-12-14T15:36:23.993Z,7.85
2022-12-14T15:38:27.599Z,8.48
2022-12-14T15:40:30.865Z,8.35
2022-12-14T15:42:32.537Z,10.30
2022-12-14T15:46:53.343Z,9.40
2022-12-14T15:49:08.251Z,9.88
2022-12-14T15:51:20.410Z,8.95
2022-12-14T15:53:33.677Z,10.82
2022-12-14T15:55:42.472Z,10.40
2022-12-14T15:57:46.796Z,12.27
2022-12-14T15:59:56.064Z,10.05
2022-12-14T16:02:16.689Z,9.02
2022-12-14T16:04:25.132Z,12.73
2022-12-14T16:06:33.046Z,12.05
2022-12-14T16:08:37.110Z,12.55
2022-12-14T16:13:13.719Z,16.10
2022-12-14T16:15:22.793Z,18.13
2022-12-14T16:17:33.884Z,17.77
2022-12-14T16:19:58.750Z,15.50
2022-12-14T16:22:19.241Z,14.57
2022-12-14T16:24:28.829Z,18.80
2022-12-14T16:26:38.822Z,27.10
2022-12-14T16:28:41.169Z,32.15
2022-12-14T16:31:12.122Z,32.55
2022-12-14T16:33:18.587Z,28.23
2022-12-14T16:36:11.788Z,22.38
2022-12-14T16:38:15.309Z,19.35
2022-12-14T16:40:32.238Z,18.83
2022-12-14T16:42:39.229Z,15.20
2022-12-14T16:44:43.648Z,13.15
2022-12-14T16:47:08.473Z,12.57
2022-12-14T16:49:17.653Z,11.85
2022-12-14T16:51:32.967Z,11.27
2022-12-14T16:53:49.451Z,11.23
2022-12-14T16:56:01.834Z,10.75
2022-12-14T16:58:03.796Z,9.88
2022-12-14T17:00:06.027Z,10.43
2022-12-14T17:02:24.224Z,11.00
2022-12-14T17:04:31.578Z,10.77
2022-12-14T17:06:39.222Z,11.32
2022-12-14T17:08:46.439Z,11.18
2022-12-14T17:10:51.580Z,9.85
2022-12-14T17:12:57.783Z,10.38
2022-12-14T17:15:06.466Z,10.35
2022-12-14T17:17:16.082Z,11.15
2022-12-14T17:19:21.297Z,9.18
2022-12-14T17:21:29.227Z,9.38
2022-12-14T17:23:36.158Z,10.45
2022-12-14T17:25:39.159Z,10.85
2022-12-14T17:27:42.611Z,12.80
2022-12-14T17:29:44.717Z,9.52
2022-12-14T17:31:50.324Z,9.23
2022-12-14T17:33:54.085Z,10.68
2022-12-14T17:35:55.783Z,8.15
2022-12-14T17:37:57.457Z,9.30
2022-12-14T17:40:00.056Z,7.65
2022-12-14T17:42:08.236Z,9.82
2022-12-14T17:44:12.842Z,9.50
2022-12-14T17:46:16.600Z,7.10
2022-12-14T17:48:21.018Z,8.98
2022-12-14T17:50:27.151Z,9.88
2022-12-14T17:52:31.876Z,9.30
2022-12-14T17:54:34.405Z,10.93
2022-12-14T17:56:39.102Z,10.68
2022-12-14T17:58:45.422Z,14.27
2022-12-14T18:01:03.276Z,11.40
2022-12-14T18:03:16.328Z,15.60
2022-12-14T18:05:22.294Z,13.55
2022-12-14T18:07:27.062Z,14.30
2022-12-14T18:09:28.565Z,14.60
2022-12-14T18:11:31.214Z,12.43
2022-12-14T18:14:01.214Z,21.33
2022-12-14T18:16:04.182Z,22.60
2022-12-14T18:18:10.116Z,19.40
2022-12-14T18:20:15.180Z,17.90
2022-12-14T18:22:19.345Z,16.65
2022-12-14T18:24:25.683Z,16.48
2022-12-14T18:26:29.472Z,15.40
2022-12-14T18:28:39.048Z,12.77
2022-12-14T18:30:49.086Z,14.57
2022-12-14T18:32:52.099Z,11.35
2022-12-14T18:34:53.603Z,11.68
2022-12-14T18:37:00.432Z,12.32
2022-12-14T18:39:01.971Z,10.80
2022-12-14T18:41:08.436Z,12.20
2022-12-14T18:43:16.295Z,10.82
2022-12-14T18:45:25.943Z,10.85
2022-12-14T18:47:41.701Z,10.35
2022-12-14T18:49:52.078Z,9.88
2022-12-14T18:52:00.206Z,8.73
2022-12-14T18:54:07.078Z,8.00
2022-12-14T18:56:17.394Z,6.95
2022-12-14T18:58:26.142Z,6.43
2022-12-14T19:00:36.620Z,7.30
2022-12-14T19:02:44.202Z,7.93
2022-12-14T19:04:51.592Z,6.93
2022-12-14T19:06:56.247Z,7.97
2022-12-14T19:08:59.250Z,6.85
2022-12-14T19:11:03.209Z,5.75
2022-12-14T19:13:21.796Z,5.95
2022-12-14T19:15:33.976Z,7.45
2022-12-14T19:17:41.081Z,6.90
2022-12-14T19:19:53.531Z,7.03
2022-12-14T19:21:57.896Z,6.22
2022-12-14T19:24:06.161Z,6.00
2022-12-14T19:26:13.962Z,8.95
2022-12-14T19:28:33.817Z,9.05
2022-12-14T19:30:36.456Z,7.70
2022-12-14T19:32:41.111Z,10.45
2022-12-14T19:34:44.565Z,10.82
2022-12-14T19:36:49.519Z,12.15
2022-12-14T19:38:52.110Z,12.85
2022-12-14T19:41:08.024Z,10.50
2022-12-14T19:43:15.614Z,10.05
2022-12-14T19:45:23.451Z,9.68
2022-12-14T19:47:25.824Z,8.88
2022-12-14T19:49:31.511Z,6.85
2022-12-14T19:51:37.326Z,7.35
2022-12-14T19:53:43.292Z,6.18
2022-12-14T19:55:52.728Z,8.40
2022-12-14T19:57:55.961Z,18.42
2022-12-14T19:59:59.957Z,12.75
2022-12-14T20:02:04.300Z,61.00
2022-12-14T20:04:08.251Z,108.93
2022-12-14T20:06:09.815Z,41.83
2022-12-14T20:10:15.661Z,29.30
2022-12-14T20:12:18.920Z,24.70
2022-12-14T20:14:24.140Z,22.92
2022-12-14T20:16:28.597Z,18.40
2022-12-14T20:18:33.277Z,15.25
2022-12-14T20:20:38.546Z,12.18
2022-12-14T20:22:42.395Z,10.73
2022-12-14T20:24:50.040Z,9.98
2022-12-14T20:26:58.343Z,8.50
2022-12-14T20:29:08.497Z,7.97
2022-12-14T20:31:17.788Z,8.50
2022-12-14T20:33:29.844Z,7.00
2022-12-14T20:35:34.508Z,5.97
2022-12-14T20:37:41.146Z,5.78
2022-12-14T20:39:45.631Z,5.00
2022-12-14T20:41:49.957Z,4.53
2022-12-14T20:43:56.041Z,5.65
2022-12-14T20:45:59.122Z,5.40
2022-12-14T20:48:08.112Z,6.03
2022-12-14T20:52:39.135Z,6.30
2022-12-14T20:54:43.410Z,5.40
2022-12-14T20:56:49.487Z,5.50
2022-12-14T20:59:42.051Z,4.97
2022-12-14T21:01:44.028Z,5.13
2022-12-14T21:03:49.071Z,4.15
2022-12-14T21:05:50.881Z,4.28
2022-12-14T21:07:54.477Z,4.68
2022-12-14T21:09:59.318Z,4.38
2022-12-14T21:12:20.576Z,5.20
2022-12-14T21:14:23.317Z,4.55
2022-12-14T21:16:31.007Z,4.25
2022-12-14T21:18:41.298Z,4.03
2022-12-14T21:20:49.202Z,3.85
2022-12-14T21:22:54.067Z,3.65
2022-12-14T21:25:05.685Z,3.42
2022-12-14T21:27:15.627Z,2.78
2022-12-14T21:29:17.513Z,4.10
2022-12-14T21:31:22.631Z,4.35
2022-12-14T21:33:30.688Z,4.13
2022-12-14T21:35:32.771Z,3.35
2022-12-14T21:37:36.768Z,3.25
2022-12-14T21:39:41.380Z,3.88
2022-12-14T21:42:01.578Z,4.22
2022-12-14T21:44:03.356Z,3.90
2022-12-14T21:46:09.948Z,4.25
2022-12-14T21:48:12.462Z,4.93
2022-12-14T21:50:18.033Z,4.30
2022-12-14T21:52:20.821Z,4.78
2022-12-14T21:54:23.659Z,4.82
2022-12-14T21:57:09.941Z,5.47
2022-12-14T21:59:16.307Z,4.35
2022-12-14T22:01:21.324Z,4.13
2022-12-14T22:03:44.638Z,4.18
2022-12-14T22:06:18.569Z,4.13
2022-12-14T22:08:39.233Z,4.60
2022-12-14T22:11:09.888Z,4.05
2022-12-14T22:13:37.707Z,4.63
2022-12-14T22:15:53.727Z,3.70
2022-12-14T22:18:17.102Z,3.97
2022-12-14T22:20:55.565Z,3.53
2022-12-14T22:23:11.126Z,3.08
2022-12-14T22:25:40.770Z,3.83
2022-12-14T22:28:13.470Z,3.47
2022-12-14T22:30:49.005Z,4.88
2022-12-14T22:33:06.879Z,5.22
2022-12-14T22:35:25.669Z,4.70
2022-12-14T22:37:54.721Z,4.55
2022-12-14T22:39:59.073Z,5.25
2022-12-14T22:42:01.037Z,5.32
2022-12-14T22:44:02.535Z,4.53
2022-12-14T22:46:04.985Z,4.95
2022-12-14T22:48:06.752Z,5.18
2022-12-14T22:50:12.341Z,5.78
2022-12-14T22:52:19.925Z,4.95
2022-12-14T22:54:29.980Z,5.45
2022-12-14T22:56:38.015Z,4.95
2022-12-14T22:58:44.753Z,5.55
2022-12-14T23:00:54.973Z,4.22
2022-12-14T23:03:00.411Z,4.43
2022-12-14T23:05:06.279Z,6.68
2022-12-14T23:07:07.783Z,4.82
2022-12-14T23:09:30.725Z,6.32
2022-12-14T23:11:50.858Z,4.70
2022-12-14T23:14:13.898Z,4.95
2022-12-14T23:16:34.154Z,4.22
2022-12-14T23:18:54.553Z,5.70
2022-12-14T23:21:15.261Z,4.53
2022-12-14T23:23:35.618Z,3.97
2022-12-14T23:25:58.399Z,3.88
2022-12-14T23:28:21.340Z,4.85
2022-12-14T23:30:41.838Z,4.80
2022-12-14T23:33:04.757Z,3.88
2022-12-14T23:35:27.356Z,4.35
2022-12-14T23:37:50.092Z,6.38
2022-12-14T23:40:10.394Z,3.95
2022-12-14T23:42:30.353Z,3.63
2022-12-14T23:44:53.297Z,4.60
2022-12-14T23:47:15.929Z,4.22
2022-12-14T23:49:39.395Z,4.78
2022-12-14T23:51:59.409Z,5.30
2022-12-14T23:54:19.338Z,4.55
2022-12-14T23:56:42.340Z,3.83
2022-12-14T23:59:04.945Z,3.70
